sensor_id;sensor_type;location;lat;lon;timestamp;P1;durP1;ratioP1;P2;durP2;ratioP2
10979;SDS011;5543;51.734;8.744;2022-12-10T00:01:35;11.70;;;4.73;;
10979;SDS011;5543;51.734;8.744;2022-12-10T00:04:03;11.33;;;5.27;;
10979;SDS011;5543;51.734;8.744;2022-12-10T00:06:33;13.03;;;5.53;;
10979;SDS011;5543;51.734;8.744;2022-12-10T00:09:03;13.10;;;5.60;;
10979;SDS011;5543;51.734;8.744;2022-12-10T00:11:34;12.83;;;4.90;;
10979;SDS011;5543;51.734;8.744;2022-12-10T00:14:02;8.00;;;4.40;;
10979;SDS011;5543;51.734;8.744;2022-12-10T00:16:33;9.17;;;5.97;;
10979;SDS011;5543;51.734;8.744;2022-12-10T00:19:01;7.70;;;4.63;;
10979;SDS011;5543;51.734;8.744;2022-12-10T00:21:31;12.33;;;5.73;;
10979;SDS011;5543;51.734;8.744;2022-12-10T00:24:01;10.67;;;4.53;;
10979;SDS011;5543;51.734;8.744;2022-12-10T00:26:32;10.43;;;5.00;;
10979;SDS011;5543;51.734;8.744;2022-12-10T00:29:02;13.93;;;6.30;;
10979;SDS011;5543;51.734;8.744;2022-12-10T00:31:33;9.83;;;3.77;;
10979;SDS011;5543;51.734;8.744;2022-12-10T00:34:03;11.80;;;5.53;;
10979;SDS011;5543;51.734;8.744;2022-12-10T00:36:34;6.47;;;3.73;;
10979;SDS011;5543;51.734;8.744;2022-12-10T00:39:04;9.70;;;4.80;;
10979;SDS011;5543;51.734;8.744;2022-12-10T00:41:35;14.00;;;4.87;;
10979;SDS011;5543;51.734;8.744;2022-12-10T00:44:03;8.77;;;4.87;;
10979;SDS011;5543;51.734;8.744;2022-12-10T00:46:31;9.47;;;5.23;;
10979;SDS011;5543;51.734;8.744;2022-12-10T00:49:00;6.87;;;3.73;;
10979;SDS011;5543;51.734;8.744;2022-12-10T00:51:28;6.13;;;4.00;;
10979;SDS011;5543;51.734;8.744;2022-12-10T00:53:57;9.23;;;4.53;;
10979;SDS011;5543;51.734;8.744;2022-12-10T00:56:26;9.03;;;4.00;;
10979;SDS011;5543;51.734;8.744;2022-12-10T00:58:57;8.50;;;4.23;;
10979;SDS011;5543;51.734;8.744;2022-12-10T01:01:26;7.27;;;3.33;;
10979;SDS011;5543;51.734;8.744;2022-12-10T01:03:57;11.50;;;4.90;;
10979;SDS011;5543;51.734;8.744;2022-12-10T01:06:26;11.73;;;4.87;;
10979;SDS011;5543;51.734;8.744;2022-12-10T01:08:59;8.77;;;4.33;;
10979;SDS011;5543;51.734;8.744;2022-12-10T01:11:31;7.07;;;3.50;;
10979;SDS011;5543;51.734;8.744;2022-12-10T01:14:05;5.33;;;2.70;;
10979;SDS011;5543;51.734;8.744;2022-12-10T01:16:35;10.50;;;4.27;;
10979;SDS011;5543;51.734;8.744;2022-12-10T01:19:03;10.10;;;4.23;;
10979;SDS011;5543;51.734;8.744;2022-12-10T01:21:32;12.17;;;4.27;;
10979;SDS011;5543;51.734;8.744;2022-12-10T01:24:00;9.37;;;4.63;;
10979;SDS011;5543;51.734;8.744;2022-12-10T01:26:29;6.00;;;3.73;;
10979;SDS011;5543;51.734;8.744;2022-12-10T01:28:58;11.80;;;3.70;;
10979;SDS011;5543;51.734;8.744;2022-12-10T01:31:29;9.47;;;4.67;;
10979;SDS011;5543;51.734;8.744;2022-12-10T01:33:58;7.73;;;4.10;;
10979;SDS011;5543;51.734;8.744;2022-12-10T01:36:27;8.80;;;3.40;;
10979;SDS011;5543;51.734;8.744;2022-12-10T01:38:57;6.07;;;3.43;;
10979;SDS011;5543;51.734;8.744;2022-12-10T01:41:26;7.07;;;3.80;;
10979;SDS011;5543;51.734;8.744;2022-12-10T01:43:56;6.50;;;3.50;;
10979;SDS011;5543;51.734;8.744;2022-12-10T01:46:25;7.30;;;3.10;;
10979;SDS011;5543;51.734;8.744;2022-12-10T01:48:56;6.17;;;3.57;;
10979;SDS011;5543;51.734;8.744;2022-12-10T01:51:25;4.50;;;2.60;;
10979;SDS011;5543;51.734;8.744;2022-12-10T01:53:55;5.33;;;2.53;;
10979;SDS011;5543;51.734;8.744;2022-12-10T01:56:24;7.70;;;3.40;;
10979;SDS011;5543;51.734;8.744;2022-12-10T01:58:53;6.57;;;3.47;;
10979;SDS011;5543;51.734;8.744;2022-12-10T02:01:26;6.93;;;3.77;;
10979;SDS011;5543;51.734;8.744;2022-12-10T02:04:03;5.83;;;3.10;;
10979;SDS011;5543;51.734;8.744;2022-12-10T02:06:44;7.70;;;3.43;;
10979;SDS011;5543;51.734;8.744;2022-12-10T02:09:20;7.70;;;3.47;;
10979;SDS011;5543;51.734;8.744;2022-12-10T02:11:57;6.23;;;3.47;;
10979;SDS011;5543;51.734;8.744;2022-12-10T02:14:32;5.00;;;2.50;;
10979;SDS011;5543;51.734;8.744;2022-12-10T02:17:11;4.40;;;2.27;;
10979;SDS011;5543;51.734;8.744;2022-12-10T02:19:55;9.67;;;3.40;;
10979;SDS011;5543;51.734;8.744;2022-12-10T02:22:31;10.57;;;3.03;;
10979;SDS011;5543;51.734;8.744;2022-12-10T02:25:02;3.67;;;1.93;;
10979;SDS011;5543;51.734;8.744;2022-12-10T02:27:35;10.30;;;2.93;;
10979;SDS011;5543;51.734;8.744;2022-12-10T02:30:09;5.10;;;2.50;;
10979;SDS011;5543;51.734;8.744;2022-12-10T02:32:38;5.47;;;2.67;;
10979;SDS011;5543;51.734;8.744;2022-12-10T02:35:10;7.43;;;4.50;;
10979;SDS011;5543;51.734;8.744;2022-12-10T02:37:42;7.23;;;3.57;;
10979;SDS011;5543;51.734;8.744;2022-12-10T02:40:15;4.87;;;2.63;;
10979;SDS011;5543;51.734;8.744;2022-12-10T02:42:47;7.17;;;3.00;;
10979;SDS011;5543;51.734;8.744;2022-12-10T02:45:20;7.80;;;3.40;;
10979;SDS011;5543;51.734;8.744;2022-12-10T02:47:54;6.80;;;2.87;;
10979;SDS011;5543;51.734;8.744;2022-12-10T02:50:25;8.60;;;3.97;;
10979;SDS011;5543;51.734;8.744;2022-12-10T02:52:53;6.30;;;3.33;;
10979;SDS011;5543;51.734;8.744;2022-12-10T02:55:21;4.07;;;2.60;;
10979;SDS011;5543;51.734;8.744;2022-12-10T02:57:53;4.70;;;2.60;;
10979;SDS011;5543;51.734;8.744;2022-12-10T03:00:33;9.33;;;3.50;;
10979;SDS011;5543;51.734;8.744;2022-12-10T03:03:22;7.30;;;3.00;;
10979;SDS011;5543;51.734;8.744;2022-12-10T03:05:56;5.43;;;3.03;;
10979;SDS011;5543;51.734;8.744;2022-12-10T03:08:31;10.73;;;2.87;;
10979;SDS011;5543;51.734;8.744;2022-12-10T03:11:04;8.67;;;3.00;;
10979;SDS011;5543;51.734;8.744;2022-12-10T03:13:39;5.93;;;3.03;;
10979;SDS011;5543;51.734;8.744;2022-12-10T03:16:15;7.43;;;3.27;;
10979;SDS011;5543;51.734;8.744;2022-12-10T03:18:46;6.37;;;3.67;;
10979;SDS011;5543;51.734;8.744;2022-12-10T03:21:17;8.33;;;3.10;;
10979;SDS011;5543;51.734;8.744;2022-12-10T03:23:46;7.73;;;3.30;;
10979;SDS011;5543;51.734;8.744;2022-12-10T03:26:16;8.97;;;3.17;;
10979;SDS011;5543;51.734;8.744;2022-12-10T03:28:47;6.00;;;2.83;;
10979;SDS011;5543;51.734;8.744;2022-12-10T03:31:19;5.33;;;3.50;;
10979;SDS011;5543;51.734;8.744;2022-12-10T03:33:48;6.20;;;3.80;;
10979;SDS011;5543;51.734;8.744;2022-12-10T03:36:17;9.13;;;5.07;;
10979;SDS011;5543;51.734;8.744;2022-12-10T03:38:46;6.90;;;3.77;;
10979;SDS011;5543;51.734;8.744;2022-12-10T03:41:14;4.70;;;3.37;;
10979;SDS011;5543;51.734;8.744;2022-12-10T03:43:49;7.70;;;3.03;;
10979;SDS011;5543;51.734;8.744;2022-12-10T03:46:20;6.00;;;4.07;;
10979;SDS011;5543;51.734;8.744;2022-12-10T03:48:49;4.77;;;2.87;;
10979;SDS011;5543;51.734;8.744;2022-12-10T03:51:17;6.97;;;3.67;;
10979;SDS011;5543;51.734;8.744;2022-12-10T03:53:45;4.53;;;3.73;;
10979;SDS011;5543;51.734;8.744;2022-12-10T03:56:15;8.77;;;3.83;;
10979;SDS011;5543;51.734;8.744;2022-12-10T03:58:43;5.57;;;2.63;;
10979;SDS011;5543;51.734;8.744;2022-12-10T04:01:11;8.83;;;3.53;;
10979;SDS011;5543;51.734;8.744;2022-12-10T04:03:41;11.37;;;4.50;;
10979;SDS011;5543;51.734;8.744;2022-12-10T04:06:12;5.23;;;3.60;;
10979;SDS011;5543;51.734;8.744;2022-12-10T04:08:42;5.83;;;2.40;;
10979;SDS011;5543;51.734;8.744;2022-12-10T04:11:12;7.77;;;3.10;;
10979;SDS011;5543;51.734;8.744;2022-12-10T04:13:41;7.03;;;3.33;;
10979;SDS011;5543;51.734;8.744;2022-12-10T04:16:27;9.70;;;3.43;;
10979;SDS011;5543;51.734;8.744;2022-12-10T04:18:58;7.13;;;3.20;;
10979;SDS011;5543;51.734;8.744;2022-12-10T04:21:29;7.67;;;4.03;;
10979;SDS011;5543;51.734;8.744;2022-12-10T04:24:16;8.03;;;3.37;;
10979;SDS011;5543;51.734;8.744;2022-12-10T04:27:02;5.47;;;3.67;;
10979;SDS011;5543;51.734;8.744;2022-12-10T04:29:33;4.30;;;2.93;;
10979;SDS011;5543;51.734;8.744;2022-12-10T04:32:01;7.93;;;4.27;;
10979;SDS011;5543;51.734;8.744;2022-12-10T04:34:30;12.53;;;4.10;;
10979;SDS011;5543;51.734;8.744;2022-12-10T04:36:58;6.00;;;2.83;;
10979;SDS011;5543;51.734;8.744;2022-12-10T04:39:27;6.40;;;3.63;;
10979;SDS011;5543;51.734;8.744;2022-12-10T04:41:55;6.50;;;3.13;;
10979;SDS011;5543;51.734;8.744;2022-12-10T04:44:24;13.03;;;4.57;;
10979;SDS011;5543;51.734;8.744;2022-12-10T04:46:52;10.93;;;5.37;;
10979;SDS011;5543;51.734;8.744;2022-12-10T04:49:20;7.60;;;3.00;;
10979;SDS011;5543;51.734;8.744;2022-12-10T04:51:49;7.30;;;4.00;;
10979;SDS011;5543;51.734;8.744;2022-12-10T04:54:19;9.73;;;3.07;;
10979;SDS011;5543;51.734;8.744;2022-12-10T04:56:47;11.20;;;5.23;;
10979;SDS011;5543;51.734;8.744;2022-12-10T04:59:15;5.70;;;3.07;;
10979;SDS011;5543;51.734;8.744;2022-12-10T05:01:44;9.50;;;4.20;;
10979;SDS011;5543;51.734;8.744;2022-12-10T05:04:13;7.20;;;4.10;;
10979;SDS011;5543;51.734;8.744;2022-12-10T05:06:43;9.07;;;3.80;;
10979;SDS011;5543;51.734;8.744;2022-12-10T05:09:12;9.20;;;4.33;;
10979;SDS011;5543;51.734;8.744;2022-12-10T05:11:42;8.67;;;5.60;;
10979;SDS011;5543;51.734;8.744;2022-12-10T05:14:11;10.03;;;3.73;;
10979;SDS011;5543;51.734;8.744;2022-12-10T05:16:40;12.80;;;4.60;;
10979;SDS011;5543;51.734;8.744;2022-12-10T05:19:09;10.37;;;5.27;;
10979;SDS011;5543;51.734;8.744;2022-12-10T05:21:37;12.00;;;4.87;;
10979;SDS011;5543;51.734;8.744;2022-12-10T05:24:24;9.00;;;3.80;;
10979;SDS011;5543;51.734;8.744;2022-12-10T05:26:52;9.43;;;4.07;;
10979;SDS011;5543;51.734;8.744;2022-12-10T05:29:20;9.53;;;4.43;;
10979;SDS011;5543;51.734;8.744;2022-12-10T05:31:48;17.80;;;6.27;;
10979;SDS011;5543;51.734;8.744;2022-12-10T05:34:17;10.40;;;5.23;;
10979;SDS011;5543;51.734;8.744;2022-12-10T05:36:45;6.77;;;3.97;;
10979;SDS011;5543;51.734;8.744;2022-12-10T05:39:13;13.67;;;5.97;;
10979;SDS011;5543;51.734;8.744;2022-12-10T05:41:43;8.23;;;4.43;;
10979;SDS011;5543;51.734;8.744;2022-12-10T05:44:12;9.97;;;5.30;;
10979;SDS011;5543;51.734;8.744;2022-12-10T05:46:40;9.20;;;4.07;;
10979;SDS011;5543;51.734;8.744;2022-12-10T05:49:08;6.97;;;3.90;;
10979;SDS011;5543;51.734;8.744;2022-12-10T05:51:37;11.40;;;5.00;;
10979;SDS011;5543;51.734;8.744;2022-12-10T05:54:05;8.30;;;4.47;;
10979;SDS011;5543;51.734;8.744;2022-12-10T05:56:35;9.37;;;4.67;;
10979;SDS011;5543;51.734;8.744;2022-12-10T05:59:05;8.33;;;3.60;;
10979;SDS011;5543;51.734;8.744;2022-12-10T06:01:41;9.17;;;3.70;;
10979;SDS011;5543;51.734;8.744;2022-12-10T06:04:10;8.13;;;3.87;;
10979;SDS011;5543;51.734;8.744;2022-12-10T06:06:38;7.57;;;4.17;;
10979;SDS011;5543;51.734;8.744;2022-12-10T06:09:07;8.20;;;3.87;;
10979;SDS011;5543;51.734;8.744;2022-12-10T06:11:39;15.13;;;4.43;;
10979;SDS011;5543;51.734;8.744;2022-12-10T06:14:09;7.80;;;4.33;;
10979;SDS011;5543;51.734;8.744;2022-12-10T06:16:38;9.43;;;4.27;;
10979;SDS011;5543;51.734;8.744;2022-12-10T06:19:07;8.03;;;4.37;;
10979;SDS011;5543;51.734;8.744;2022-12-10T06:21:35;12.30;;;4.47;;
10979;SDS011;5543;51.734;8.744;2022-12-10T06:24:03;9.57;;;4.57;;
10979;SDS011;5543;51.734;8.744;2022-12-10T06:26:32;5.90;;;3.70;;
10979;SDS011;5543;51.734;8.744;2022-12-10T06:29:00;9.30;;;4.83;;
10979;SDS011;5543;51.734;8.744;2022-12-10T06:31:29;11.73;;;4.87;;
10979;SDS011;5543;51.734;8.744;2022-12-10T06:33:58;12.20;;;5.57;;
10979;SDS011;5543;51.734;8.744;2022-12-10T06:36:26;12.63;;;5.27;;
10979;SDS011;5543;51.734;8.744;2022-12-10T06:38:54;6.27;;;4.17;;
10979;SDS011;5543;51.734;8.744;2022-12-10T06:41:22;5.93;;;3.70;;
10979;SDS011;5543;51.734;8.744;2022-12-10T06:43:50;11.90;;;6.17;;
10979;SDS011;5543;51.734;8.744;2022-12-10T06:46:18;12.03;;;4.70;;
10979;SDS011;5543;51.734;8.744;2022-12-10T06:48:49;7.70;;;4.27;;
10979;SDS011;5543;51.734;8.744;2022-12-10T06:51:17;13.97;;;4.43;;
10979;SDS011;5543;51.734;8.744;2022-12-10T06:53:45;8.80;;;4.60;;
10979;SDS011;5543;51.734;8.744;2022-12-10T06:56:15;9.60;;;4.80;;
10979;SDS011;5543;51.734;8.744;2022-12-10T06:58:45;10.20;;;5.07;;
10979;SDS011;5543;51.734;8.744;2022-12-10T07:01:15;10.67;;;5.07;;
10979;SDS011;5543;51.734;8.744;2022-12-10T07:03:47;13.83;;;4.03;;
10979;SDS011;5543;51.734;8.744;2022-12-10T07:06:17;12.43;;;4.90;;
10979;SDS011;5543;51.734;8.744;2022-12-10T07:08:45;8.77;;;4.93;;
10979;SDS011;5543;51.734;8.744;2022-12-10T07:11:15;13.83;;;5.80;;
10979;SDS011;5543;51.734;8.744;2022-12-10T07:13:44;12.37;;;5.93;;
10979;SDS011;5543;51.734;8.744;2022-12-10T07:16:12;11.43;;;5.03;;
10979;SDS011;5543;51.734;8.744;2022-12-10T07:18:41;15.10;;;5.07;;
10979;SDS011;5543;51.734;8.744;2022-12-10T07:21:18;9.37;;;5.13;;
10979;SDS011;5543;51.734;8.744;2022-12-10T07:23:49;10.53;;;4.00;;
10979;SDS011;5543;51.734;8.744;2022-12-10T07:26:17;10.67;;;4.23;;
10979;SDS011;5543;51.734;8.744;2022-12-10T07:28:45;9.93;;;5.07;;
10979;SDS011;5543;51.734;8.744;2022-12-10T07:31:19;8.70;;;3.70;;
10979;SDS011;5543;51.734;8.744;2022-12-10T07:33:49;11.00;;;4.13;;
10979;SDS011;5543;51.734;8.744;2022-12-10T07:36:19;13.10;;;5.80;;
10979;SDS011;5543;51.734;8.744;2022-12-10T07:38:49;14.20;;;6.23;;
10979;SDS011;5543;51.734;8.744;2022-12-10T07:41:17;7.83;;;4.67;;
10979;SDS011;5543;51.734;8.744;2022-12-10T07:43:46;10.70;;;5.30;;
10979;SDS011;5543;51.734;8.744;2022-12-10T07:46:15;10.33;;;4.37;;
10979;SDS011;5543;51.734;8.744;2022-12-10T07:48:45;14.80;;;4.50;;
10979;SDS011;5543;51.734;8.744;2022-12-10T07:51:15;8.67;;;4.63;;
10979;SDS011;5543;51.734;8.744;2022-12-10T07:53:45;14.00;;;5.37;;
10979;SDS011;5543;51.734;8.744;2022-12-10T07:56:14;12.57;;;4.57;;
10979;SDS011;5543;51.734;8.744;2022-12-10T07:58:42;8.90;;;4.13;;
10979;SDS011;5543;51.734;8.744;2022-12-10T08:01:12;9.80;;;5.80;;
10979;SDS011;5543;51.734;8.744;2022-12-10T08:03:45;14.53;;;6.17;;
10979;SDS011;5543;51.734;8.744;2022-12-10T08:06:13;17.43;;;7.40;;
10979;SDS011;5543;51.734;8.744;2022-12-10T08:08:43;25.80;;;5.73;;
10979;SDS011;5543;51.734;8.744;2022-12-10T08:11:13;19.90;;;7.27;;
10979;SDS011;5543;51.734;8.744;2022-12-10T08:13:42;9.40;;;3.80;;
10979;SDS011;5543;51.734;8.744;2022-12-10T08:16:11;13.57;;;6.07;;
10979;SDS011;5543;51.734;8.744;2022-12-10T08:18:41;11.93;;;5.90;;
10979;SDS011;5543;51.734;8.744;2022-12-10T08:21:10;12.53;;;5.23;;
10979;SDS011;5543;51.734;8.744;2022-12-10T08:23:40;16.53;;;4.70;;
10979;SDS011;5543;51.734;8.744;2022-12-10T08:26:09;12.07;;;3.47;;
10979;SDS011;5543;51.734;8.744;2022-12-10T08:28:40;10.93;;;4.97;;
10979;SDS011;5543;51.734;8.744;2022-12-10T08:31:08;12.07;;;4.97;;
10979;SDS011;5543;51.734;8.744;2022-12-10T08:33:38;16.50;;;7.13;;
10979;SDS011;5543;51.734;8.744;2022-12-10T08:36:08;11.70;;;5.27;;
10979;SDS011;5543;51.734;8.744;2022-12-10T08:38:38;18.27;;;7.27;;
10979;SDS011;5543;51.734;8.744;2022-12-10T08:41:07;14.57;;;5.17;;
10979;SDS011;5543;51.734;8.744;2022-12-10T08:43:36;11.30;;;5.30;;
10979;SDS011;5543;51.734;8.744;2022-12-10T08:46:06;7.30;;;4.30;;
10979;SDS011;5543;51.734;8.744;2022-12-10T08:48:35;17.33;;;5.77;;
10979;SDS011;5543;51.734;8.744;2022-12-10T08:51:03;10.47;;;5.10;;
10979;SDS011;5543;51.734;8.744;2022-12-10T08:53:32;12.43;;;5.07;;
10979;SDS011;5543;51.734;8.744;2022-12-10T08:56:01;15.00;;;6.50;;
10979;SDS011;5543;51.734;8.744;2022-12-10T08:58:29;13.47;;;5.23;;
10979;SDS011;5543;51.734;8.744;2022-12-10T09:00:58;14.67;;;5.60;;
10979;SDS011;5543;51.734;8.744;2022-12-10T09:03:29;11.20;;;5.43;;
10979;SDS011;5543;51.734;8.744;2022-12-10T09:05:59;14.57;;;5.43;;
10979;SDS011;5543;51.734;8.744;2022-12-10T09:08:29;11.57;;;5.03;;
10979;SDS011;5543;51.734;8.744;2022-12-10T09:10:57;15.50;;;6.40;;
10979;SDS011;5543;51.734;8.744;2022-12-10T09:13:31;14.17;;;5.77;;
10979;SDS011;5543;51.734;8.744;2022-12-10T09:15:59;12.87;;;5.03;;
10979;SDS011;5543;51.734;8.744;2022-12-10T09:18:29;14.60;;;6.20;;
10979;SDS011;5543;51.734;8.744;2022-12-10T09:20:57;10.93;;;5.13;;
10979;SDS011;5543;51.734;8.744;2022-12-10T09:23:25;12.77;;;5.73;;
10979;SDS011;5543;51.734;8.744;2022-12-10T09:25:53;14.57;;;5.80;;
10979;SDS011;5543;51.734;8.744;2022-12-10T09:28:22;15.93;;;6.23;;
10979;SDS011;5543;51.734;8.744;2022-12-10T09:30:54;11.37;;;4.97;;
10979;SDS011;5543;51.734;8.744;2022-12-10T09:33:23;15.60;;;5.70;;
10979;SDS011;5543;51.734;8.744;2022-12-10T09:35:52;14.37;;;5.60;;
10979;SDS011;5543;51.734;8.744;2022-12-10T09:38:21;10.20;;;5.97;;
10979;SDS011;5543;51.734;8.744;2022-12-10T09:40:51;13.27;;;6.27;;
10979;SDS011;5543;51.734;8.744;2022-12-10T09:43:28;15.53;;;6.23;;
10979;SDS011;5543;51.734;8.744;2022-12-10T09:46:10;11.70;;;5.20;;
10979;SDS011;5543;51.734;8.744;2022-12-10T09:48:48;9.70;;;4.83;;
10979;SDS011;5543;51.734;8.744;2022-12-10T09:51:28;17.43;;;6.57;;
10979;SDS011;5543;51.734;8.744;2022-12-10T09:53:58;11.87;;;5.67;;
10979;SDS011;5543;51.734;8.744;2022-12-10T09:56:28;11.60;;;5.80;;
10979;SDS011;5543;51.734;8.744;2022-12-10T09:58:59;10.70;;;5.57;;
10979;SDS011;5543;51.734;8.744;2022-12-10T10:01:31;9.10;;;4.27;;
10979;SDS011;5543;51.734;8.744;2022-12-10T10:04:02;12.40;;;5.40;;
10979;SDS011;5543;51.734;8.744;2022-12-10T10:06:33;13.13;;;5.40;;
10979;SDS011;5543;51.734;8.744;2022-12-10T10:09:02;14.63;;;5.43;;
10979;SDS011;5543;51.734;8.744;2022-12-10T10:11:32;12.10;;;5.50;;
10979;SDS011;5543;51.734;8.744;2022-12-10T10:14:05;10.60;;;5.57;;
10979;SDS011;5543;51.734;8.744;2022-12-10T10:16:40;14.60;;;6.23;;
10979;SDS011;5543;51.734;8.744;2022-12-10T10:19:13;11.07;;;5.50;;
10979;SDS011;5543;51.734;8.744;2022-12-10T10:21:45;12.47;;;4.93;;
10979;SDS011;5543;51.734;8.744;2022-12-10T10:24:15;16.20;;;5.47;;
10979;SDS011;5543;51.734;8.744;2022-12-10T10:26:45;13.63;;;5.97;;
10979;SDS011;5543;51.734;8.744;2022-12-10T10:29:15;12.90;;;4.87;;
10979;SDS011;5543;51.734;8.744;2022-12-10T10:31:46;11.33;;;5.23;;
10979;SDS011;5543;51.734;8.744;2022-12-10T10:34:15;14.77;;;5.70;;
10979;SDS011;5543;51.734;8.744;2022-12-10T10:36:46;15.43;;;6.73;;
10979;SDS011;5543;51.734;8.744;2022-12-10T10:39:20;10.87;;;5.20;;
10979;SDS011;5543;51.734;8.744;2022-12-10T10:41:54;13.93;;;4.27;;
10979;SDS011;5543;51.734;8.744;2022-12-10T10:44:25;8.07;;;4.77;;
10979;SDS011;5543;51.734;8.744;2022-12-10T10:47:00;12.77;;;5.73;;
10979;SDS011;5543;51.734;8.744;2022-12-10T10:49:28;15.97;;;5.40;;
10979;SDS011;5543;51.734;8.744;2022-12-10T10:52:01;14.27;;;5.53;;
10979;SDS011;5543;51.734;8.744;2022-12-10T10:54:34;11.13;;;5.17;;
10979;SDS011;5543;51.734;8.744;2022-12-10T10:57:11;14.47;;;6.30;;
10979;SDS011;5543;51.734;8.744;2022-12-10T10:59:43;15.00;;;5.17;;
10979;SDS011;5543;51.734;8.744;2022-12-10T11:02:19;14.60;;;3.53;;
10979;SDS011;5543;51.734;8.744;2022-12-10T11:04:49;7.97;;;3.60;;
10979;SDS011;5543;51.734;8.744;2022-12-10T11:07:22;5.50;;;3.10;;
10979;SDS011;5543;51.734;8.744;2022-12-10T11:09:53;6.53;;;2.80;;
10979;SDS011;5543;51.734;8.744;2022-12-10T11:12:29;7.83;;;3.10;;
10979;SDS011;5543;51.734;8.744;2022-12-10T11:15:01;5.00;;;2.70;;
10979;SDS011;5543;51.734;8.744;2022-12-10T11:17:45;5.97;;;2.90;;
10979;SDS011;5543;51.734;8.744;2022-12-10T11:20:15;4.13;;;2.23;;
10979;SDS011;5543;51.734;8.744;2022-12-10T11:22:50;7.20;;;3.67;;
10979;SDS011;5543;51.734;8.744;2022-12-10T11:25:19;5.80;;;2.87;;
10979;SDS011;5543;51.734;8.744;2022-12-10T11:27:57;7.20;;;3.67;;
10979;SDS011;5543;51.734;8.744;2022-12-10T11:30:29;6.60;;;3.83;;
10979;SDS011;5543;51.734;8.744;2022-12-10T11:33:14;7.00;;;3.90;;
10979;SDS011;5543;51.734;8.744;2022-12-10T11:35:54;9.93;;;4.03;;
10979;SDS011;5543;51.734;8.744;2022-12-10T11:38:31;6.40;;;2.87;;
10979;SDS011;5543;51.734;8.744;2022-12-10T11:41:09;5.33;;;3.00;;
10979;SDS011;5543;51.734;8.744;2022-12-10T11:46:49;4.20;;;2.40;;
10979;SDS011;5543;51.734;8.744;2022-12-10T11:49:30;7.17;;;3.43;;
10979;SDS011;5543;51.734;8.744;2022-12-10T11:52:06;4.50;;;3.13;;
10979;SDS011;5543;51.734;8.744;2022-12-10T11:54:48;6.17;;;3.03;;
10979;SDS011;5543;51.734;8.744;2022-12-10T11:57:34;6.57;;;2.60;;
10979;SDS011;5543;51.734;8.744;2022-12-10T12:00:14;4.90;;;2.70;;
10979;SDS011;5543;51.734;8.744;2022-12-10T12:03:01;7.93;;;2.73;;
10979;SDS011;5543;51.734;8.744;2022-12-10T12:05:48;5.63;;;2.03;;
10979;SDS011;5543;51.734;8.744;2022-12-10T12:08:36;4.07;;;2.20;;
10979;SDS011;5543;51.734;8.744;2022-12-10T12:11:19;5.60;;;3.40;;
10979;SDS011;5543;51.734;8.744;2022-12-10T12:14:00;5.23;;;2.60;;
10979;SDS011;5543;51.734;8.744;2022-12-10T12:16:37;4.73;;;2.40;;
10979;SDS011;5543;51.734;8.744;2022-12-10T12:19:11;6.50;;;3.70;;
10979;SDS011;5543;51.734;8.744;2022-12-10T12:21:43;6.27;;;2.97;;
10979;SDS011;5543;51.734;8.744;2022-12-10T12:24:19;7.37;;;2.90;;
10979;SDS011;5543;51.734;8.744;2022-12-10T12:26:54;3.97;;;2.33;;
10979;SDS011;5543;51.734;8.744;2022-12-10T12:29:27;8.60;;;4.00;;
10979;SDS011;5543;51.734;8.744;2022-12-10T12:32:03;8.73;;;3.63;;
10979;SDS011;5543;51.734;8.744;2022-12-10T12:34:37;4.73;;;2.90;;
10979;SDS011;5543;51.734;8.744;2022-12-10T12:37:14;6.60;;;3.90;;
10979;SDS011;5543;51.734;8.744;2022-12-10T12:39:46;7.30;;;3.27;;
10979;SDS011;5543;51.734;8.744;2022-12-10T12:42:24;6.03;;;3.47;;
10979;SDS011;5543;51.734;8.744;2022-12-10T12:45:03;7.00;;;3.40;;
10979;SDS011;5543;51.734;8.744;2022-12-10T12:47:39;9.70;;;4.40;;
10979;SDS011;5543;51.734;8.744;2022-12-10T12:50:18;7.27;;;3.50;;
10979;SDS011;5543;51.734;8.744;2022-12-10T12:52:56;6.40;;;3.00;;
10979;SDS011;5543;51.734;8.744;2022-12-10T12:55:31;7.57;;;4.00;;
10979;SDS011;5543;51.734;8.744;2022-12-10T12:58:17;8.47;;;3.53;;
10979;SDS011;5543;51.734;8.744;2022-12-10T13:00:55;4.20;;;3.13;;
10979;SDS011;5543;51.734;8.744;2022-12-10T13:03:33;5.47;;;3.00;;
10979;SDS011;5543;51.734;8.744;2022-12-10T13:06:16;7.27;;;4.03;;
10979;SDS011;5543;51.734;8.744;2022-12-10T13:08:52;6.03;;;3.13;;
10979;SDS011;5543;51.734;8.744;2022-12-10T13:11:32;7.23;;;2.83;;
10979;SDS011;5543;51.734;8.744;2022-12-10T13:17:01;7.37;;;3.30;;
10979;SDS011;5543;51.734;8.744;2022-12-10T13:19:54;5.63;;;2.87;;
10979;SDS011;5543;51.734;8.744;2022-12-10T13:22:59;10.43;;;3.30;;
10979;SDS011;5543;51.734;8.744;2022-12-10T13:25:39;7.30;;;3.97;;
10979;SDS011;5543;51.734;8.744;2022-12-10T13:28:17;5.50;;;3.50;;
10979;SDS011;5543;51.734;8.744;2022-12-10T13:34:05;8.80;;;3.73;;
10979;SDS011;5543;51.734;8.744;2022-12-10T13:39:47;6.77;;;3.90;;
10979;SDS011;5543;51.734;8.744;2022-12-10T13:42:27;12.57;;;3.30;;
10979;SDS011;5543;51.734;8.744;2022-12-10T13:45:28;7.23;;;3.63;;
10979;SDS011;5543;51.734;8.744;2022-12-10T13:51:08;5.13;;;2.73;;
10979;SDS011;5543;51.734;8.744;2022-12-10T13:53:54;3.80;;;2.43;;
10979;SDS011;5543;51.734;8.744;2022-12-10T13:56:45;5.57;;;3.17;;
10979;SDS011;5543;51.734;8.744;2022-12-10T13:59:26;6.27;;;3.20;;
10979;SDS011;5543;51.734;8.744;2022-12-10T14:02:06;9.47;;;3.10;;
10979;SDS011;5543;51.734;8.744;2022-12-10T14:05:17;8.20;;;3.33;;
10979;SDS011;5543;51.734;8.744;2022-12-10T14:08:08;4.73;;;2.27;;
10979;SDS011;5543;51.734;8.744;2022-12-10T14:10:43;6.40;;;3.03;;
10979;SDS011;5543;51.734;8.744;2022-12-10T14:13:13;7.47;;;3.57;;
10979;SDS011;5543;51.734;8.744;2022-12-10T14:15:47;7.67;;;3.40;;
10979;SDS011;5543;51.734;8.744;2022-12-10T14:18:24;7.93;;;2.87;;
10979;SDS011;5543;51.734;8.744;2022-12-10T14:21:01;6.27;;;3.10;;
10979;SDS011;5543;51.734;8.744;2022-12-10T14:23:34;8.67;;;3.47;;
10979;SDS011;5543;51.734;8.744;2022-12-10T14:26:14;6.50;;;3.73;;
10979;SDS011;5543;51.734;8.744;2022-12-10T14:28:46;4.80;;;2.93;;
10979;SDS011;5543;51.734;8.744;2022-12-10T14:31:18;3.80;;;3.00;;
10979;SDS011;5543;51.734;8.744;2022-12-10T14:33:51;10.33;;;3.50;;
10979;SDS011;5543;51.734;8.744;2022-12-10T14:36:27;8.07;;;3.90;;
10979;SDS011;5543;51.734;8.744;2022-12-10T14:38:57;5.23;;;3.40;;
10979;SDS011;5543;51.734;8.744;2022-12-10T14:41:30;9.27;;;3.40;;
10979;SDS011;5543;51.734;8.744;2022-12-10T14:44:06;7.43;;;3.37;;
10979;SDS011;5543;51.734;8.744;2022-12-10T14:46:42;8.40;;;3.43;;
10979;SDS011;5543;51.734;8.744;2022-12-10T14:49:13;7.53;;;3.33;;
10979;SDS011;5543;51.734;8.744;2022-12-10T14:51:46;5.57;;;2.93;;
10979;SDS011;5543;51.734;8.744;2022-12-10T14:54:28;4.57;;;2.77;;
10979;SDS011;5543;51.734;8.744;2022-12-10T14:56:59;7.13;;;3.60;;
10979;SDS011;5543;51.734;8.744;2022-12-10T14:59:33;5.73;;;3.50;;
10979;SDS011;5543;51.734;8.744;2022-12-10T15:02:10;9.87;;;4.30;;
10979;SDS011;5543;51.734;8.744;2022-12-10T15:04:47;8.33;;;3.40;;
10979;SDS011;5543;51.734;8.744;2022-12-10T15:07:19;8.43;;;3.60;;
10979;SDS011;5543;51.734;8.744;2022-12-10T15:09:51;4.20;;;2.47;;
10979;SDS011;5543;51.734;8.744;2022-12-10T15:12:27;7.20;;;3.07;;
10979;SDS011;5543;51.734;8.744;2022-12-10T15:15:02;6.57;;;3.90;;
10979;SDS011;5543;51.734;8.744;2022-12-10T15:17:40;7.67;;;3.30;;
10979;SDS011;5543;51.734;8.744;2022-12-10T15:20:22;4.57;;;2.90;;
10979;SDS011;5543;51.734;8.744;2022-12-10T15:23:05;5.20;;;2.77;;
10979;SDS011;5543;51.734;8.744;2022-12-10T15:25:41;3.83;;;2.73;;
10979;SDS011;5543;51.734;8.744;2022-12-10T15:28:23;7.27;;;3.67;;
10979;SDS011;5543;51.734;8.744;2022-12-10T15:30:55;8.47;;;4.00;;
10979;SDS011;5543;51.734;8.744;2022-12-10T15:33:28;8.27;;;3.23;;
10979;SDS011;5543;51.734;8.744;2022-12-10T15:36:05;4.87;;;2.73;;
10979;SDS011;5543;51.734;8.744;2022-12-10T15:38:46;4.60;;;2.70;;
10979;SDS011;5543;51.734;8.744;2022-12-10T15:41:22;8.70;;;4.70;;
10979;SDS011;5543;51.734;8.744;2022-12-10T15:43:55;7.40;;;3.97;;